sensor_id;sensor_type;location;lat;lon;timestamp;P1;durP1;ratioP1;P2;durP2;ratioP2
20962;SDS011;10640;50.140;8.138;2022-08-19T00:00:50;28.97;;;19.13;;
20962;SDS011;10640;50.140;8.138;2022-08-19T00:03:17;26.87;;;18.17;;
20962;SDS011;10640;50.140;8.138;2022-08-19T00:05:44;25.50;;;17.70;;
20962;SDS011;10640;50.140;8.138;2022-08-19T00:08:11;29.43;;;18.63;;
20962;SDS011;10640;50.140;8.138;2022-08-19T00:10:39;29.43;;;18.37;;
20962;SDS011;10640;50.140;8.138;2022-08-19T00:13:06;28.70;;;18.20;;
20962;SDS011;10640;50.140;8.138;2022-08-19T00:15:34;25.70;;;17.87;;
20962;SDS011;10640;50.140;8.138;2022-08-19T00:18:01;27.23;;;17.80;;
20962;SDS011;10640;50.140;8.138;2022-08-19T00:20:28;32.63;;;19.20;;
20962;SDS011;10640;50.140;8.138;2022-08-19T00:22:55;34.93;;;21.20;;
20962;SDS011;10640;50.140;8.138;2022-08-19T00:25:23;28.73;;;19.17;;
20962;SDS011;10640;50.140;8.138;2022-08-19T00:27:51;28.10;;;19.83;;
20962;SDS011;10640;50.140;8.138;2022-08-19T00:30:18;28.93;;;19.13;;
20962;SDS011;10640;50.140;8.138;2022-08-19T00:32:45;35.27;;;20.40;;
20962;SDS011;10640;50.140;8.138;2022-08-19T00:35:12;35.00;;;20.30;;
20962;SDS011;10640;50.140;8.138;2022-08-19T00:37:39;30.43;;;19.47;;
20962;SDS011;10640;50.140;8.138;2022-08-19T00:40:08;32.97;;;20.77;;
20962;SDS011;10640;50.140;8.138;2022-08-19T00:42:38;28.43;;;19.37;;
20962;SDS011;10640;50.140;8.138;2022-08-19T00:45:08;29.27;;;18.97;;
20962;SDS011;10640;50.140;8.138;2022-08-19T00:47:37;33.23;;;20.60;;
20962;SDS011;10640;50.140;8.138;2022-08-19T00:50:05;29.70;;;19.57;;
20962;SDS011;10640;50.140;8.138;2022-08-19T00:52:37;32.57;;;20.53;;
20962;SDS011;10640;50.140;8.138;2022-08-19T00:55:07;33.83;;;20.03;;
20962;SDS011;10640;50.140;8.138;2022-08-19T00:57:37;30.93;;;20.33;;
20962;SDS011;10640;50.140;8.138;2022-08-19T01:00:10;34.83;;;21.40;;
20962;SDS011;10640;50.140;8.138;2022-08-19T01:02:40;33.90;;;20.87;;
20962;SDS011;10640;50.140;8.138;2022-08-19T01:05:09;35.87;;;21.80;;
20962;SDS011;10640;50.140;8.138;2022-08-19T01:07:38;34.03;;;21.97;;
20962;SDS011;10640;50.140;8.138;2022-08-19T01:10:07;38.23;;;22.13;;
20962;SDS011;10640;50.140;8.138;2022-08-19T01:12:37;35.40;;;21.77;;
20962;SDS011;10640;50.140;8.138;2022-08-19T01:15:05;34.73;;;21.97;;
20962;SDS011;10640;50.140;8.138;2022-08-19T01:17:36;33.07;;;22.07;;
20962;SDS011;10640;50.140;8.138;2022-08-19T01:20:05;32.43;;;20.03;;
20962;SDS011;10640;50.140;8.138;2022-08-19T01:22:37;29.93;;;20.60;;
20962;SDS011;10640;50.140;8.138;2022-08-19T01:25:10;32.07;;;20.00;;
20962;SDS011;10640;50.140;8.138;2022-08-19T01:27:39;28.70;;;19.40;;
20962;SDS011;10640;50.140;8.138;2022-08-19T01:30:09;31.53;;;19.77;;
20962;SDS011;10640;50.140;8.138;2022-08-19T01:32:39;27.83;;;19.07;;
20962;SDS011;10640;50.140;8.138;2022-08-19T01:35:06;28.70;;;18.97;;
20962;SDS011;10640;50.140;8.138;2022-08-19T01:37:42;28.43;;;19.27;;
20962;SDS011;10640;50.140;8.138;2022-08-19T01:40:14;29.40;;;18.17;;
20962;SDS011;10640;50.140;8.138;2022-08-19T01:42:41;26.60;;;17.40;;
20962;SDS011;10640;50.140;8.138;2022-08-19T01:45:09;28.83;;;19.03;;
20962;SDS011;10640;50.140;8.138;2022-08-19T01:47:36;28.67;;;18.17;;
20962;SDS011;10640;50.140;8.138;2022-08-19T01:50:04;28.27;;;18.27;;
20962;SDS011;10640;50.140;8.138;2022-08-19T01:52:34;25.97;;;18.50;;
20962;SDS011;10640;50.140;8.138;2022-08-19T01:55:03;26.40;;;18.37;;
20962;SDS011;10640;50.140;8.138;2022-08-19T01:57:31;28.40;;;17.87;;
20962;SDS011;10640;50.140;8.138;2022-08-19T01:59:58;26.80;;;18.40;;
20962;SDS011;10640;50.140;8.138;2022-08-19T02:02:28;27.87;;;17.90;;
20962;SDS011;10640;50.140;8.138;2022-08-19T02:04:54;29.63;;;19.60;;
20962;SDS011;10640;50.140;8.138;2022-08-19T02:07:21;26.17;;;17.30;;
20962;SDS011;10640;50.140;8.138;2022-08-19T02:09:49;25.10;;;18.33;;
20962;SDS011;10640;50.140;8.138;2022-08-19T02:12:17;25.53;;;17.70;;
20962;SDS011;10640;50.140;8.138;2022-08-19T02:14:45;28.80;;;17.43;;
20962;SDS011;10640;50.140;8.138;2022-08-19T02:17:12;29.73;;;17.53;;
20962;SDS011;10640;50.140;8.138;2022-08-19T02:19:39;27.87;;;18.50;;
20962;SDS011;10640;50.140;8.138;2022-08-19T02:22:06;24.27;;;16.27;;
20962;SDS011;10640;50.140;8.138;2022-08-19T02:24:33;26.03;;;17.37;;
20962;SDS011;10640;50.140;8.138;2022-08-19T02:27:00;26.10;;;16.53;;
20962;SDS011;10640;50.140;8.138;2022-08-19T02:29:28;24.83;;;17.40;;
20962;SDS011;10640;50.140;8.138;2022-08-19T02:31:55;26.93;;;17.63;;
20962;SDS011;10640;50.140;8.138;2022-08-19T02:34:23;24.13;;;16.83;;
20962;SDS011;10640;50.140;8.138;2022-08-19T02:36:50;25.37;;;16.50;;
20962;SDS011;10640;50.140;8.138;2022-08-19T02:39:17;24.20;;;16.70;;
20962;SDS011;10640;50.140;8.138;2022-08-19T02:41:43;24.00;;;15.87;;
20962;SDS011;10640;50.140;8.138;2022-08-19T02:44:10;25.57;;;16.23;;
20962;SDS011;10640;50.140;8.138;2022-08-19T02:46:39;21.63;;;15.87;;
20962;SDS011;10640;50.140;8.138;2022-08-19T02:49:06;24.50;;;16.53;;
20962;SDS011;10640;50.140;8.138;2022-08-19T02:51:34;22.43;;;16.53;;
20962;SDS011;10640;50.140;8.138;2022-08-19T02:54:03;22.20;;;16.50;;
20962;SDS011;10640;50.140;8.138;2022-08-19T02:56:31;21.80;;;16.57;;
20962;SDS011;10640;50.140;8.138;2022-08-19T02:59:00;25.33;;;17.17;;
20962;SDS011;10640;50.140;8.138;2022-08-19T03:01:28;25.87;;;17.67;;
20962;SDS011;10640;50.140;8.138;2022-08-19T03:03:58;28.63;;;17.47;;
20962;SDS011;10640;50.140;8.138;2022-08-19T03:06:27;23.27;;;16.73;;
20962;SDS011;10640;50.140;8.138;2022-08-19T03:08:54;28.37;;;16.60;;
20962;SDS011;10640;50.140;8.138;2022-08-19T03:11:22;24.00;;;16.50;;
20962;SDS011;10640;50.140;8.138;2022-08-19T03:13:51;28.00;;;16.27;;
20962;SDS011;10640;50.140;8.138;2022-08-19T03:16:19;25.60;;;16.67;;
20962;SDS011;10640;50.140;8.138;2022-08-19T03:18:47;28.80;;;16.47;;
20962;SDS011;10640;50.140;8.138;2022-08-19T03:21:17;25.30;;;17.10;;
20962;SDS011;10640;50.140;8.138;2022-08-19T03:23:46;23.83;;;16.30;;
20962;SDS011;10640;50.140;8.138;2022-08-19T03:26:13;23.90;;;17.17;;
20962;SDS011;10640;50.140;8.138;2022-08-19T03:28:40;23.63;;;17.00;;
20962;SDS011;10640;50.140;8.138;2022-08-19T03:31:10;26.63;;;16.07;;
20962;SDS011;10640;50.140;8.138;2022-08-19T03:33:39;24.53;;;16.63;;
20962;SDS011;10640;50.140;8.138;2022-08-19T03:36:07;26.00;;;16.47;;
20962;SDS011;10640;50.140;8.138;2022-08-19T03:38:38;25.60;;;17.40;;
20962;SDS011;10640;50.140;8.138;2022-08-19T03:41:07;26.97;;;16.43;;
20962;SDS011;10640;50.140;8.138;2022-08-19T03:43:37;24.33;;;17.30;;
20962;SDS011;10640;50.140;8.138;2022-08-19T03:46:06;27.03;;;17.43;;
20962;SDS011;10640;50.140;8.138;2022-08-19T03:48:37;21.27;;;14.80;;
20962;SDS011;10640;50.140;8.138;2022-08-19T03:51:05;25.13;;;17.20;;
20962;SDS011;10640;50.140;8.138;2022-08-19T03:53:33;25.10;;;17.07;;
20962;SDS011;10640;50.140;8.138;2022-08-19T03:56:02;23.10;;;16.60;;
20962;SDS011;10640;50.140;8.138;2022-08-19T03:58:29;26.47;;;18.13;;
20962;SDS011;10640;50.140;8.138;2022-08-19T04:00:56;27.43;;;17.80;;
20962;SDS011;10640;50.140;8.138;2022-08-19T04:03:23;25.97;;;17.00;;
20962;SDS011;10640;50.140;8.138;2022-08-19T04:05:51;24.90;;;17.93;;
20962;SDS011;10640;50.140;8.138;2022-08-19T04:08:18;23.93;;;16.80;;
20962;SDS011;10640;50.140;8.138;2022-08-19T04:10:47;25.80;;;17.03;;
20962;SDS011;10640;50.140;8.138;2022-08-19T04:13:16;25.00;;;16.80;;
20962;SDS011;10640;50.140;8.138;2022-08-19T04:15:45;28.00;;;17.43;;
20962;SDS011;10640;50.140;8.138;2022-08-19T04:18:12;25.27;;;17.47;;
20962;SDS011;10640;50.140;8.138;2022-08-19T04:20:41;27.13;;;18.53;;
20962;SDS011;10640;50.140;8.138;2022-08-19T04:23:09;29.80;;;17.73;;
20962;SDS011;10640;50.140;8.138;2022-08-19T04:25:37;28.10;;;17.90;;
20962;SDS011;10640;50.140;8.138;2022-08-19T04:28:05;28.07;;;17.97;;
20962;SDS011;10640;50.140;8.138;2022-08-19T04:30:38;29.13;;;19.00;;
20962;SDS011;10640;50.140;8.138;2022-08-19T04:33:06;25.97;;;17.47;;
20962;SDS011;10640;50.140;8.138;2022-08-19T04:35:34;29.57;;;18.23;;
20962;SDS011;10640;50.140;8.138;2022-08-19T04:38:03;31.17;;;18.07;;
20962;SDS011;10640;50.140;8.138;2022-08-19T04:40:30;30.03;;;18.10;;
20962;SDS011;10640;50.140;8.138;2022-08-19T04:43:14;26.67;;;17.63;;
20962;SDS011;10640;50.140;8.138;2022-08-19T04:45:43;28.40;;;18.63;;
20962;SDS011;10640;50.140;8.138;2022-08-19T04:48:10;30.17;;;17.77;;
20962;SDS011;10640;50.140;8.138;2022-08-19T04:50:39;30.70;;;18.13;;
20962;SDS011;10640;50.140;8.138;2022-08-19T04:53:07;26.57;;;17.13;;
20962;SDS011;10640;50.140;8.138;2022-08-19T04:55:37;26.20;;;17.07;;
20962;SDS011;10640;50.140;8.138;2022-08-19T04:58:05;25.73;;;17.60;;
20962;SDS011;10640;50.140;8.138;2022-08-19T05:00:32;25.60;;;16.57;;
20962;SDS011;10640;50.140;8.138;2022-08-19T05:03:00;25.70;;;16.10;;
20962;SDS011;10640;50.140;8.138;2022-08-19T05:05:27;26.20;;;16.83;;
20962;SDS011;10640;50.140;8.138;2022-08-19T05:07:56;26.53;;;16.93;;
20962;SDS011;10640;50.140;8.138;2022-08-19T05:10:23;26.03;;;16.83;;
20962;SDS011;10640;50.140;8.138;2022-08-19T05:12:50;25.90;;;16.20;;
20962;SDS011;10640;50.140;8.138;2022-08-19T05:15:16;27.07;;;18.20;;
20962;SDS011;10640;50.140;8.138;2022-08-19T05:17:44;26.30;;;16.67;;
20962;SDS011;10640;50.140;8.138;2022-08-19T05:20:32;26.30;;;17.43;;
20962;SDS011;10640;50.140;8.138;2022-08-19T05:23:17;22.73;;;16.60;;
20962;SDS011;10640;50.140;8.138;2022-08-19T05:25:44;22.80;;;14.67;;
20962;SDS011;10640;50.140;8.138;2022-08-19T05:28:12;22.20;;;15.87;;
20962;SDS011;10640;50.140;8.138;2022-08-19T05:59:04;25.30;;;15.83;;
20962;SDS011;10640;50.140;8.138;2022-08-19T06:01:34;21.57;;;14.60;;
20962;SDS011;10640;50.140;8.138;2022-08-19T06:04:03;21.43;;;14.80;;
20962;SDS011;10640;50.140;8.138;2022-08-19T06:06:31;21.17;;;15.60;;
20962;SDS011;10640;50.140;8.138;2022-08-19T06:08:59;25.50;;;14.43;;
20962;SDS011;10640;50.140;8.138;2022-08-19T06:11:33;24.50;;;14.03;;
20962;SDS011;10640;50.140;8.138;2022-08-19T06:14:05;18.27;;;13.43;;
20962;SDS011;10640;50.140;8.138;2022-08-19T06:16:34;18.07;;;13.67;;
20962;SDS011;10640;50.140;8.138;2022-08-19T06:19:04;20.50;;;13.87;;
20962;SDS011;10640;50.140;8.138;2022-08-19T06:21:39;17.27;;;13.40;;
20962;SDS011;10640;50.140;8.138;2022-08-19T06:24:09;21.07;;;13.57;;
20962;SDS011;10640;50.140;8.138;2022-08-19T06:26:43;16.50;;;13.20;;
20962;SDS011;10640;50.140;8.138;2022-08-19T06:29:13;17.93;;;13.97;;
20962;SDS011;10640;50.140;8.138;2022-08-19T06:31:43;20.37;;;13.70;;
20962;SDS011;10640;50.140;8.138;2022-08-19T06:34:12;18.10;;;12.67;;
20962;SDS011;10640;50.140;8.138;2022-08-19T06:36:40;19.17;;;12.67;;
20962;SDS011;10640;50.140;8.138;2022-08-19T06:39:10;20.57;;;13.27;;
20962;SDS011;10640;50.140;8.138;2022-08-19T06:41:40;16.50;;;11.97;;
20962;SDS011;10640;50.140;8.138;2022-08-19T06:44:09;14.90;;;11.70;;
20962;SDS011;10640;50.140;8.138;2022-08-19T06:46:38;20.40;;;12.37;;
20962;SDS011;10640;50.140;8.138;2022-08-19T06:49:06;17.80;;;11.83;;
20962;SDS011;10640;50.140;8.138;2022-08-19T06:51:35;19.10;;;11.30;;
20962;SDS011;10640;50.140;8.138;2022-08-19T06:54:02;13.97;;;10.57;;
20962;SDS011;10640;50.140;8.138;2022-08-19T06:56:30;15.53;;;10.57;;
20962;SDS011;10640;50.140;8.138;2022-08-19T06:58:59;17.77;;;10.43;;
20962;SDS011;10640;50.140;8.138;2022-08-19T07:01:27;18.33;;;11.33;;
20962;SDS011;10640;50.140;8.138;2022-08-19T07:07:46;16.83;;;11.10;;
20962;SDS011;10640;50.140;8.138;2022-08-19T07:17:21;13.70;;;10.77;;
20962;SDS011;10640;50.140;8.138;2022-08-19T07:19:48;14.73;;;10.00;;
20962;SDS011;10640;50.140;8.138;2022-08-19T07:22:15;15.40;;;10.17;;
20962;SDS011;10640;50.140;8.138;2022-08-19T07:24:44;14.73;;;10.17;;
20962;SDS011;10640;50.140;8.138;2022-08-19T07:27:13;15.67;;;10.60;;
20962;SDS011;10640;50.140;8.138;2022-08-19T07:29:41;14.47;;;10.17;;
20962;SDS011;10640;50.140;8.138;2022-08-19T07:32:11;15.23;;;10.50;;
20962;SDS011;10640;50.140;8.138;2022-08-19T07:34:41;21.47;;;12.47;;
20962;SDS011;10640;50.140;8.138;2022-08-19T07:37:08;19.03;;;13.13;;
20962;SDS011;10640;50.140;8.138;2022-08-19T07:39:36;17.67;;;12.27;;
20962;SDS011;10640;50.140;8.138;2022-08-19T07:42:09;20.90;;;12.60;;
20962;SDS011;10640;50.140;8.138;2022-08-19T07:44:39;19.87;;;13.90;;
20962;SDS011;10640;50.140;8.138;2022-08-19T07:47:07;17.53;;;12.50;;
20962;SDS011;10640;50.140;8.138;2022-08-19T07:49:36;21.80;;;13.50;;
20962;SDS011;10640;50.140;8.138;2022-08-19T07:52:05;19.67;;;12.50;;
20962;SDS011;10640;50.140;8.138;2022-08-19T07:54:35;15.20;;;10.67;;
20962;SDS011;10640;50.140;8.138;2022-08-19T07:57:04;17.30;;;10.87;;
20962;SDS011;10640;50.140;8.138;2022-08-19T08:07:12;17.57;;;12.67;;
20962;SDS011;10640;50.140;8.138;2022-08-19T08:09:57;28.43;;;14.57;;
20962;SDS011;10640;50.140;8.138;2022-08-19T08:17:50;26.43;;;15.53;;
20962;SDS011;10640;50.140;8.138;2022-08-19T08:20:18;18.43;;;11.93;;
20962;SDS011;10640;50.140;8.138;2022-08-19T08:22:46;19.93;;;11.93;;
20962;SDS011;10640;50.140;8.138;2022-08-19T08:25:31;18.40;;;12.47;;
20962;SDS011;10640;50.140;8.138;2022-08-19T08:31:13;19.77;;;14.17;;
20962;SDS011;10640;50.140;8.138;2022-08-19T08:33:42;20.73;;;14.30;;
20962;SDS011;10640;50.140;8.138;2022-08-19T08:36:10;14.17;;;10.73;;
20962;SDS011;10640;50.140;8.138;2022-08-19T08:38:39;17.33;;;12.17;;
20962;SDS011;10640;50.140;8.138;2022-08-19T08:41:09;17.57;;;13.77;;
20962;SDS011;10640;50.140;8.138;2022-08-19T08:43:45;17.43;;;13.10;;
20962;SDS011;10640;50.140;8.138;2022-08-19T08:46:15;25.53;;;15.80;;
20962;SDS011;10640;50.140;8.138;2022-08-19T08:48:49;20.73;;;15.80;;
20962;SDS011;10640;50.140;8.138;2022-08-19T08:51:22;24.03;;;16.47;;
20962;SDS011;10640;50.140;8.138;2022-08-19T08:53:54;20.90;;;15.40;;
20962;SDS011;10640;50.140;8.138;2022-08-19T08:56:37;21.57;;;17.37;;
20962;SDS011;10640;50.140;8.138;2022-08-19T08:59:05;20.87;;;17.03;;
20962;SDS011;10640;50.140;8.138;2022-08-19T09:01:37;20.20;;;17.73;;
20962;SDS011;10640;50.140;8.138;2022-08-19T09:04:06;27.33;;;20.27;;
20962;SDS011;10640;50.140;8.138;2022-08-19T09:06:36;24.90;;;18.37;;
20962;SDS011;10640;50.140;8.138;2022-08-19T09:09:12;23.27;;;18.30;;
20962;SDS011;10640;50.140;8.138;2022-08-19T09:11:49;22.57;;;17.60;;
20962;SDS011;10640;50.140;8.138;2022-08-19T09:14:32;23.97;;;18.40;;
20962;SDS011;10640;50.140;8.138;2022-08-19T09:17:06;23.83;;;17.63;;
20962;SDS011;10640;50.140;8.138;2022-08-19T09:19:46;18.73;;;15.23;;
20962;SDS011;10640;50.140;8.138;2022-08-19T09:22:15;22.27;;;16.57;;
20962;SDS011;10640;50.140;8.138;2022-08-19T09:24:42;20.80;;;15.10;;
20962;SDS011;10640;50.140;8.138;2022-08-19T09:27:09;20.30;;;14.80;;
20962;SDS011;10640;50.140;8.138;2022-08-19T09:29:36;17.97;;;14.80;;
20962;SDS011;10640;50.140;8.138;2022-08-19T09:32:03;23.47;;;15.53;;
20962;SDS011;10640;50.140;8.138;2022-08-19T09:34:31;16.87;;;13.63;;
20962;SDS011;10640;50.140;8.138;2022-08-19T09:36:59;19.47;;;13.33;;
20962;SDS011;10640;50.140;8.138;2022-08-19T09:39:28;15.73;;;11.70;;
20962;SDS011;10640;50.140;8.138;2022-08-19T09:41:55;15.70;;;11.93;;
20962;SDS011;10640;50.140;8.138;2022-08-19T09:44:23;16.50;;;12.30;;
20962;SDS011;10640;50.140;8.138;2022-08-19T09:46:50;13.73;;;11.13;;
20962;SDS011;10640;50.140;8.138;2022-08-19T09:49:17;17.07;;;11.27;;
20962;SDS011;10640;50.140;8.138;2022-08-19T09:51:48;16.77;;;12.18;;
20962;SDS011;10640;50.140;8.138;2022-08-19T09:54:18;14.30;;;11.88;;
20962;SDS011;10640;50.140;8.138;2022-08-19T09:56:45;14.07;;;11.10;;
20962;SDS011;10640;50.140;8.138;2022-08-19T09:59:12;11.35;;;10.25;;
20962;SDS011;10640;50.140;8.138;2022-08-19T10:01:39;16.42;;;12.10;;
20962;SDS011;10640;50.140;8.138;2022-08-19T10:04:06;11.27;;;9.57;;
20962;SDS011;10640;50.140;8.138;2022-08-19T10:06:34;12.82;;;11.07;;
20962;SDS011;10640;50.140;8.138;2022-08-19T10:09:03;12.70;;;9.82;;
20962;SDS011;10640;50.140;8.138;2022-08-19T10:11:33;15.30;;;13.10;;
20962;SDS011;10640;50.140;8.138;2022-08-19T10:14:03;13.70;;;10.73;;
20962;SDS011;10640;50.140;8.138;2022-08-19T10:17:11;15.50;;;13.53;;
20962;SDS011;10640;50.140;8.138;2022-08-19T10:19:38;14.07;;;10.80;;
20962;SDS011;10640;50.140;8.138;2022-08-19T10:22:05;13.13;;;9.73;;
20962;SDS011;10640;50.140;8.138;2022-08-19T10:24:33;10.93;;;9.82;;
20962;SDS011;10640;50.140;8.138;2022-08-19T10:27:02;10.30;;;8.18;;
20962;SDS011;10640;50.140;8.138;2022-08-19T10:29:30;8.32;;;6.65;;
20962;SDS011;10640;50.140;8.138;2022-08-19T10:31:59;8.15;;;6.75;;
20962;SDS011;10640;50.140;8.138;2022-08-19T10:34:28;8.20;;;7.00;;
20962;SDS011;10640;50.140;8.138;2022-08-19T10:36:57;8.98;;;7.20;;
20962;SDS011;10640;50.140;8.138;2022-08-19T10:39:26;7.78;;;6.15;;
20962;SDS011;10640;50.140;8.138;2022-08-19T10:41:56;7.43;;;6.72;;
20962;SDS011;10640;50.140;8.138;2022-08-19T10:44:25;7.28;;;6.60;;
20962;SDS011;10640;50.140;8.138;2022-08-19T10:46:55;7.10;;;6.45;;
20962;SDS011;10640;50.140;8.138;2022-08-19T10:49:21;7.53;;;5.53;;
20962;SDS011;10640;50.140;8.138;2022-08-19T10:51:49;8.23;;;6.25;;
20962;SDS011;10640;50.140;8.138;2022-08-19T10:54:34;6.80;;;5.72;;
20962;SDS011;10640;50.140;8.138;2022-08-19T10:57:18;7.10;;;6.30;;
20962;SDS011;10640;50.140;8.138;2022-08-19T10:59:46;6.72;;;6.00;;
20962;SDS011;10640;50.140;8.138;2022-08-19T11:02:51;6.75;;;6.25;;
20962;SDS011;10640;50.140;8.138;2022-08-19T11:05:18;6.70;;;6.10;;
20962;SDS011;10640;50.140;8.138;2022-08-19T11:07:47;7.20;;;5.50;;
20962;SDS011;10640;50.140;8.138;2022-08-19T11:10:16;6.18;;;5.57;;
20962;SDS011;10640;50.140;8.138;2022-08-19T11:12:47;7.50;;;5.40;;
20962;SDS011;10640;50.140;8.138;2022-08-19T11:15:19;6.13;;;5.53;;
20962;SDS011;10640;50.140;8.138;2022-08-19T11:17:46;5.93;;;5.20;;
20962;SDS011;10640;50.140;8.138;2022-08-19T11:20:14;5.15;;;4.70;;
20962;SDS011;10640;50.140;8.138;2022-08-19T11:22:41;5.82;;;5.22;;
20962;SDS011;10640;50.140;8.138;2022-08-19T11:25:09;14.93;;;5.57;;
20962;SDS011;10640;50.140;8.138;2022-08-19T11:27:40;10.98;;;5.75;;
20962;SDS011;10640;50.140;8.138;2022-08-19T11:30:09;5.43;;;4.88;;
20962;SDS011;10640;50.140;8.138;2022-08-19T11:32:39;6.65;;;5.38;;
20962;SDS011;10640;50.140;8.138;2022-08-19T11:35:06;6.80;;;6.10;;
20962;SDS011;10640;50.140;8.138;2022-08-19T11:37:34;6.07;;;5.57;;
20962;SDS011;10640;50.140;8.138;2022-08-19T11:40:02;6.30;;;5.43;;
20962;SDS011;10640;50.140;8.138;2022-08-19T11:42:30;5.43;;;4.93;;
20962;SDS011;10640;50.140;8.138;2022-08-19T11:45:15;9.40;;;4.90;;
20962;SDS011;10640;50.140;8.138;2022-08-19T11:47:47;7.10;;;5.50;;
20962;SDS011;10640;50.140;8.138;2022-08-19T11:50:14;6.07;;;5.47;;
20962;SDS011;10640;50.140;8.138;2022-08-19T11:52:45;6.28;;;5.40;;
20962;SDS011;10640;50.140;8.138;2022-08-19T11:55:12;7.07;;;6.40;;
20962;SDS011;10640;50.140;8.138;2022-08-19T11:57:40;6.18;;;5.60;;
20962;SDS011;10640;50.140;8.138;2022-08-19T12:00:08;7.70;;;6.23;;
20962;SDS011;10640;50.140;8.138;2022-08-19T12:02:37;6.90;;;6.20;;
20962;SDS011;10640;50.140;8.138;2022-08-19T12:05:07;8.57;;;6.03;;
20962;SDS011;10640;50.140;8.138;2022-08-19T12:07:37;7.18;;;5.40;;
20962;SDS011;10640;50.140;8.138;2022-08-19T12:10:05;5.82;;;5.32;;
20962;SDS011;10640;50.140;8.138;2022-08-19T12:12:32;6.75;;;5.80;;
20962;SDS011;10640;50.140;8.138;2022-08-19T12:15:00;5.47;;;5.00;;
20962;SDS011;10640;50.140;8.138;2022-08-19T12:17:27;6.80;;;5.20;;
20962;SDS011;10640;50.140;8.138;2022-08-19T12:19:55;6.28;;;5.30;;
20962;SDS011;10640;50.140;8.138;2022-08-19T12:22:24;7.43;;;5.13;;
20962;SDS011;10640;50.140;8.138;2022-08-19T12:24:51;5.90;;;5.30;;
20962;SDS011;10640;50.140;8.138;2022-08-19T12:27:18;5.47;;;4.93;;
20962;SDS011;10640;50.140;8.138;2022-08-19T12:29:45;6.95;;;5.07;;
20962;SDS011;10640;50.140;8.138;2022-08-19T12:32:12;6.80;;;5.40;;
20962;SDS011;10640;50.140;8.138;2022-08-19T12:34:39;5.50;;;5.00;;
20962;SDS011;10640;50.140;8.138;2022-08-19T12:37:07;5.13;;;4.57;;
20962;SDS011;10640;50.140;8.138;2022-08-19T12:39:38;20.38;;;5.38;;
20962;SDS011;10640;50.140;8.138;2022-08-19T12:42:07;4.60;;;4.20;;
20962;SDS011;10640;50.140;8.138;2022-08-19T12:44:37;5.20;;;4.70;;
20962;SDS011;10640;50.140;8.138;2022-08-19T12:47:05;5.25;;;4.38;;
20962;SDS011;10640;50.140;8.138;2022-08-19T12:49:33;6.50;;;5.22;;
20962;SDS011;10640;50.140;8.138;2022-08-19T12:52:03;6.45;;;5.60;;
20962;SDS011;10640;50.140;8.138;2022-08-19T12:54:30;6.30;;;5.22;;
20962;SDS011;10640;50.140;8.138;2022-08-19T12:57:00;5.60;;;5.10;;
20962;SDS011;10640;50.140;8.138;2022-08-19T12:59:31;5.38;;;4.80;;
20962;SDS011;10640;50.140;8.138;2022-08-19T13:01:59;5.72;;;5.10;;
20962;SDS011;10640;50.140;8.138;2022-08-19T13:04:26;8.82;;;6.10;;
20962;SDS011;10640;50.140;8.138;2022-08-19T13:06:53;6.85;;;6.30;;
20962;SDS011;10640;50.140;8.138;2022-08-19T13:09:20;7.72;;;6.10;;
20962;SDS011;10640;50.140;8.138;2022-08-19T13:11:47;7.47;;;6.33;;
20962;SDS011;10640;50.140;8.138;2022-08-19T13:14:16;6.73;;;5.90;;
20962;SDS011;10640;50.140;8.138;2022-08-19T13:16:43;6.70;;;6.10;;
20962;SDS011;10640;50.140;8.138;2022-08-19T13:19:11;6.10;;;5.60;;
20962;SDS011;10640;50.140;8.138;2022-08-19T13:21:38;7.60;;;7.00;;
20962;SDS011;10640;50.140;8.138;2022-08-19T13:24:05;7.90;;;7.17;;
20962;SDS011;10640;50.140;8.138;2022-08-19T13:26:32;10.13;;;7.30;;
20962;SDS011;10640;50.140;8.138;2022-08-19T13:28:59;9.63;;;6.43;;
20962;SDS011;10640;50.140;8.138;2022-08-19T13:31:45;6.67;;;5.97;;
20962;SDS011;10640;50.140;8.138;2022-08-19T13:34:30;7.37;;;5.60;;
20962;SDS011;10640;50.140;8.138;2022-08-19T13:36:59;8.57;;;6.20;;
20962;SDS011;10640;50.140;8.138;2022-08-19T13:39:28;8.10;;;6.63;;
20962;SDS011;10640;50.140;8.138;2022-08-19T13:41:55;8.17;;;6.67;;
20962;SDS011;10640;50.140;8.138;2022-08-19T13:44:22;8.87;;;6.90;;
20962;SDS011;10640;50.140;8.138;2022-08-19T13:46:51;7.43;;;6.40;;
20962;SDS011;10640;50.140;8.138;2022-08-19T13:49:18;9.40;;;5.82;;
20962;SDS011;10640;50.140;8.138;2022-08-19T13:51:46;7.37;;;5.87;;
20962;SDS011;10640;50.140;8.138;2022-08-19T13:54:13;7.10;;;6.40;;
20962;SDS011;10640;50.140;8.138;2022-08-19T13:56:40;7.03;;;6.33;;
20962;SDS011;10640;50.140;8.138;2022-08-19T13:59:08;12.50;;;6.10;;
20962;SDS011;10640;50.140;8.138;2022-08-19T14:01:36;6.40;;;5.80;;
20962;SDS011;10640;50.140;8.138;2022-08-19T14:04:05;7.60;;;5.40;;
20962;SDS011;10640;50.140;8.138;2022-08-19T14:06:32;5.65;;;5.13;;
20962;SDS011;10640;50.140;8.138;2022-08-19T14:08:59;4.93;;;4.22;;
20962;SDS011;10640;50.140;8.138;2022-08-19T14:11:27;6.80;;;4.90;;
20962;SDS011;10640;50.140;8.138;2022-08-19T14:13:54;5.23;;;4.73;;
20962;SDS011;10640;50.140;8.138;2022-08-19T14:16:21;6.27;;;5.67;;
20962;SDS011;10640;50.140;8.138;2022-08-19T14:18:49;6.50;;;5.30;;
20962;SDS011;10640;50.140;8.138;2022-08-19T14:21:20;8.33;;;5.13;;
20962;SDS011;10640;50.140;8.138;2022-08-19T14:23:48;7.40;;;5.70;;
20962;SDS011;10640;50.140;8.138;2022-08-19T14:26:16;5.73;;;5.23;;
20962;SDS011;10640;50.140;8.138;2022-08-19T14:28:45;7.43;;;5.10;;
20962;SDS011;10640;50.140;8.138;2022-08-19T14:31:14;6.73;;;5.20;;
20962;SDS011;10640;50.140;8.138;2022-08-19T14:33:43;5.70;;;5.07;;
20962;SDS011;10640;50.140;8.138;2022-08-19T14:36:11;6.30;;;5.23;;
20962;SDS011;10640;50.140;8.138;2022-08-19T14:38:39;8.67;;;5.70;;
20962;SDS011;10640;50.140;8.138;2022-08-19T14:41:07;5.23;;;4.73;;
20962;SDS011;10640;50.140;8.138;2022-08-19T14:43:36;6.10;;;5.13;;
20962;SDS011;10640;50.140;8.138;2022-08-19T14:46:03;5.83;;;5.23;;
20962;SDS011;10640;50.140;8.138;2022-08-19T14:48:31;5.70;;;5.20;;
20962;SDS011;10640;50.140;8.138;2022-08-19T14:50:58;7.67;;;5.33;;
20962;SDS011;10640;50.140;8.138;2022-08-19T14:53:25;10.60;;;5.20;;
20962;SDS011;10640;50.140;8.138;2022-08-19T14:55:53;8.53;;;6.00;;
20962;SDS011;10640;50.140;8.138;2022-08-19T14:58:20;9.37;;;5.90;;
20962;SDS011;10640;50.140;8.138;2022-08-19T15:00:47;8.67;;;5.70;;
20962;SDS011;10640;50.140;8.138;2022-08-19T15:03:14;9.00;;;6.23;;
20962;SDS011;10640;50.140;8.138;2022-08-19T15:05:41;8.47;;;6.70;;
20962;SDS011;10640;50.140;8.138;2022-08-19T15:08:08;9.90;;;6.20;;
20962;SDS011;10640;50.140;8.138;2022-08-19T15:10:35;8.17;;;5.47;;
20962;SDS011;10640;50.140;8.138;2022-08-19T15:13:05;6.23;;;5.73;;
20962;SDS011;10640;50.140;8.138;2022-08-19T15:15:32;6.50;;;5.50;;
20962;SDS011;10640;50.140;8.138;2022-08-19T15:18:00;6.57;;;5.80;;
20962;SDS011;10640;50.140;8.138;2022-08-19T15:20:27;6.87;;;5.80;;
20962;SDS011;10640;50.140;8.138;2022-08-19T15:22:55;6.37;;;5.77;;
20962;SDS011;10640;50.140;8.138;2022-08-19T15:25:23;8.13;;;5.80;;
20962;SDS011;10640;50.140;8.138;2022-08-19T15:27:51;6.60;;;5.90;;
20962;SDS011;10640;50.140;8.138;2022-08-19T15:30:23;8.47;;;5.83;;
20962;SDS011;10640;50.140;8.138;2022-08-19T15:32:52;9.47;;;6.00;;
20962;SDS011;10640;50.140;8.138;2022-08-19T15:35:19;6.60;;;6.00;;
20962;SDS011;10640;50.140;8.138;2022-08-19T15:37:47;8.57;;;6.17;;